sensor_id;sensor_type;location;lat;lon;timestamp;pressure;altitude;pressure_sealevel;temperature;humidity
24154;BME280;12312;53.362;-1.518;2023-01-27T00:00:07;100845.47;;;3.30;100.00
24154;BME280;12312;53.362;-1.518;2023-01-27T00:02:34;100858.53;;;3.34;100.00
24154;BME280;12312;53.362;-1.518;2023-01-27T00:05:00;100846.22;;;3.38;100.00
24154;BME280;12312;53.362;-1.518;2023-01-27T00:07:25;100843.63;;;3.35;100.00
24154;BME280;12312;53.362;-1.518;2023-01-27T00:09:51;100837.53;;;3.33;100.00
24154;BME280;12312;53.362;-1.518;2023-01-27T00:12:19;100838.38;;;3.35;100.00
24154;BME280;12312;53.362;-1.518;2023-01-27T00:15:08;100845.41;;;3.33;100.00
24154;BME280;12312;53.362;-1.518;2023-01-27T00:17:34;100840.16;;;3.33;100.00
24154;BME280;12312;53.362;-1.518;2023-01-27T00:20:01;100841.03;;;3.33;100.00
24154;BME280;12312;53.362;-1.518;2023-01-27T00:22:26;100846.16;;;3.41;100.00
24154;BME280;12312;53.362;-1.518;2023-01-27T00:25:12;100846.19;;;3.39;100.00
24154;BME280;12312;53.362;-1.518;2023-01-27T00:27:38;100846.31;;;3.32;100.00
24154;BME280;12312;53.362;-1.518;2023-01-27T00:30:05;100842.00;;;3.29;100.00
24154;BME280;12312;53.362;-1.518;2023-01-27T00:32:31;100836.88;;;3.22;100.00
24154;BME280;12312;53.362;-1.518;2023-01-27T00:35:15;100844.00;;;3.14;100.00
24154;BME280;12312;53.362;-1.518;2023-01-27T00:37:42;100845.72;;;3.15;100.00
24154;BME280;12312;53.362;-1.518;2023-01-27T00:40:09;100836.06;;;3.17;100.00
24154;BME280;12312;53.362;-1.518;2023-01-27T00:42:35;100831.72;;;3.16;100.00
24154;BME280;12312;53.362;-1.518;2023-01-27T00:45:01;100842.22;;;3.16;100.00
24154;BME280;12312;53.362;-1.518;2023-01-27T00:47:47;100831.72;;;3.14;100.00
24154;BME280;12312;53.362;-1.518;2023-01-27T00:50:13;100846.59;;;3.15;100.00
24154;BME280;12312;53.362;-1.518;2023-01-27T00:52:39;100844.00;;;3.14;100.00
24154;BME280;12312;53.362;-1.518;2023-01-27T00:55:06;100842.22;;;3.16;100.00
24154;BME280;12312;53.362;-1.518;2023-01-27T00:57:32;100842.22;;;3.16;100.00
24154;BME280;12312;53.362;-1.518;2023-01-27T00:59:58;100834.25;;;3.20;100.00
24154;BME280;12312;53.362;-1.518;2023-01-27T01:02:23;100826.44;;;3.16;100.00
24154;BME280;12312;53.362;-1.518;2023-01-27T01:04:49;100828.19;;;3.17;100.00
24154;BME280;12312;53.362;-1.518;2023-01-27T01:07:16;100817.59;;;3.20;100.00
24154;BME280;12312;53.362;-1.518;2023-01-27T01:10:00;100819.31;;;3.21;100.00
24154;BME280;12312;53.362;-1.518;2023-01-27T01:12:25;100816.78;;;3.16;100.00
24154;BME280;12312;53.362;-1.518;2023-01-27T01:14:51;100815.88;;;3.19;100.00
24154;BME280;12312;53.362;-1.518;2023-01-27T01:17:16;100808.75;;;3.24;100.00
24154;BME280;12312;53.362;-1.518;2023-01-27T01:19:43;100822.84;;;3.20;100.00
24154;BME280;12312;53.362;-1.518;2023-01-27T01:22:09;100801.88;;;3.17;100.00
24154;BME280;12312;53.362;-1.518;2023-01-27T01:24:34;100807.94;;;3.22;100.00
24154;BME280;12312;53.362;-1.518;2023-01-27T01:27:00;100803.50;;;3.24;100.00
24154;BME280;12312;53.362;-1.518;2023-01-27T01:29:26;100806.97;;;3.26;100.00
24154;BME280;12312;53.362;-1.518;2023-01-27T01:31:51;100814.06;;;3.21;100.00
24154;BME280;12312;53.362;-1.518;2023-01-27T01:34:17;100807.09;;;3.20;100.00
24154;BME280;12312;53.362;-1.518;2023-01-27T01:36:42;100804.44;;;3.21;100.00
24154;BME280;12312;53.362;-1.518;2023-01-27T01:39:08;100821.09;;;3.22;100.00
24154;BME280;12312;53.362;-1.518;2023-01-27T01:41:33;100808.75;;;3.24;100.00
24154;BME280;12312;53.362;-1.518;2023-01-27T01:44:21;100813.13;;;3.26;100.00
24154;BME280;12312;53.362;-1.518;2023-01-27T01:46:47;100813.97;;;3.27;100.00
24154;BME280;12312;53.362;-1.518;2023-01-27T01:49:13;100814.81;;;3.29;100.00
24154;BME280;12312;53.362;-1.518;2023-01-27T01:52:04;100824.47;;;3.27;100.00
24154;BME280;12312;53.362;-1.518;2023-01-27T01:54:46;100811.31;;;3.27;100.00
24154;BME280;12312;53.362;-1.518;2023-01-27T01:57:20;100821.84;;;3.27;100.00
24154;BME280;12312;53.362;-1.518;2023-01-27T01:59:57;100815.78;;;3.25;100.00
24154;BME280;12312;53.362;-1.518;2023-01-27T02:02:25;100807.91;;;3.23;100.00
24154;BME280;12312;53.362;-1.518;2023-01-27T02:05:04;100804.44;;;3.21;100.00
24154;BME280;12312;53.362;-1.518;2023-01-27T02:07:40;100819.31;;;3.21;100.00
24154;BME280;12312;53.362;-1.518;2023-01-27T02:10:10;100821.94;;;3.22;100.00
24154;BME280;12312;53.362;-1.518;2023-01-27T02:12:38;100829.75;;;3.27;100.00
24154;BME280;12312;53.362;-1.518;2023-01-27T02:15:06;100822.69;;;3.29;100.00
24154;BME280;12312;53.362;-1.518;2023-01-27T02:17:32;100814.88;;;3.24;100.00
24154;BME280;12312;53.362;-1.518;2023-01-27T02:20:04;100815.72;;;3.28;100.00
24154;BME280;12312;53.362;-1.518;2023-01-27T02:28:05;100819.22;;;3.27;100.00
24154;BME280;12312;53.362;-1.518;2023-01-27T02:30:31;100816.63;;;3.24;100.00
24154;BME280;12312;53.362;-1.518;2023-01-27T02:32:57;100826.19;;;3.31;100.00
24154;BME280;12312;53.362;-1.518;2023-01-27T02:35:33;100821.81;;;3.28;100.00
24154;BME280;12312;53.362;-1.518;2023-01-27T02:38:00;100810.41;;;3.31;100.00
24154;BME280;12312;53.362;-1.518;2023-01-27T02:40:28;100813.97;;;3.27;100.00
24154;BME280;12312;53.362;-1.518;2023-01-27T02:42:55;100805.19;;;3.28;100.00
24154;BME280;12312;53.362;-1.518;2023-01-27T02:45:22;100813.84;;;3.33;100.00
24154;BME280;12312;53.362;-1.518;2023-01-27T02:47:48;100816.44;;;3.34;100.00
24154;BME280;12312;53.362;-1.518;2023-01-27T02:50:16;100806.81;;;3.35;100.00
24154;BME280;12312;53.362;-1.518;2023-01-27T02:52:42;100806.78;;;3.36;100.00
24154;BME280;12312;53.362;-1.518;2023-01-27T02:55:08;100806.88;;;3.30;100.00
24154;BME280;12312;53.362;-1.518;2023-01-27T02:57:35;100802.47;;;3.32;100.00
24154;BME280;12312;53.362;-1.518;2023-01-27T03:00:01;100793.75;;;3.29;100.00
24154;BME280;12312;53.362;-1.518;2023-01-27T03:02:27;100787.66;;;3.27;100.00
24154;BME280;12312;53.362;-1.518;2023-01-27T03:04:58;100791.97;;;3.31;100.00
24154;BME280;12312;53.362;-1.518;2023-01-27T03:07:25;100794.63;;;3.31;100.00
24154;BME280;12312;53.362;-1.518;2023-01-27T03:09:51;100800.75;;;3.30;100.00
24154;BME280;12312;53.362;-1.518;2023-01-27T03:12:17;100789.34;;;3.31;100.00
24154;BME280;12312;53.362;-1.518;2023-01-27T03:14:47;100784.94;;;3.31;100.00
24154;BME280;12312;53.362;-1.518;2023-01-27T03:17:32;100791.97;;;3.31;100.00
24154;BME280;12312;53.362;-1.518;2023-01-27T03:20:16;100792.84;;;3.30;100.00
24154;BME280;12312;53.362;-1.518;2023-01-27T03:22:42;100789.34;;;3.31;100.00
24154;BME280;12312;53.362;-1.518;2023-01-27T03:25:08;100798.13;;;3.30;100.00
24154;BME280;12312;53.362;-1.518;2023-01-27T03:27:34;100796.41;;;3.29;100.00
24154;BME280;12312;53.362;-1.518;2023-01-27T03:30:01;100791.09;;;3.30;100.00
24154;BME280;12312;53.362;-1.518;2023-01-27T03:32:29;100787.59;;;3.30;100.00
24154;BME280;12312;53.362;-1.518;2023-01-27T03:34:55;100790.38;;;3.22;100.00
24154;BME280;12312;53.362;-1.518;2023-01-27T03:37:25;100787.75;;;3.21;100.00
24154;BME280;12312;53.362;-1.518;2023-01-27T03:40:10;100790.38;;;3.22;100.00
24154;BME280;12312;53.362;-1.518;2023-01-27T03:42:54;100792.91;;;3.27;100.00
24154;BME280;12312;53.362;-1.518;2023-01-27T03:45:43;100789.56;;;3.19;100.00
24154;BME280;12312;53.362;-1.518;2023-01-27T03:48:30;100788.69;;;3.18;100.00
24154;BME280;12312;53.362;-1.518;2023-01-27T03:50:57;100793.97;;;3.18;100.00
24154;BME280;12312;53.362;-1.518;2023-01-27T03:53:23;100791.31;;;3.20;100.00
24154;BME280;12312;53.362;-1.518;2023-01-27T03:55:50;100791.31;;;3.20;100.00
24154;BME280;12312;53.362;-1.518;2023-01-27T03:58:31;100799.94;;;3.28;100.00
24154;BME280;12312;53.362;-1.518;2023-01-27T04:01:01;100797.31;;;3.28;100.00
24154;BME280;12312;53.362;-1.518;2023-01-27T04:03:32;100801.59;;;3.32;100.00
24154;BME280;12312;53.362;-1.518;2023-01-27T04:06:23;100799.09;;;3.26;100.00
24154;BME280;12312;53.362;-1.518;2023-01-27T04:09:18;100790.28;;;3.27;100.00
24154;BME280;12312;53.362;-1.518;2023-01-27T04:11:50;100794.75;;;3.23;100.00
24154;BME280;12312;53.362;-1.518;2023-01-27T04:14:29;100788.59;;;3.24;100.00
24154;BME280;12312;53.362;-1.518;2023-01-27T04:19:29;100796.44;;;3.26;100.00
24154;BME280;12312;53.362;-1.518;2023-01-27T04:21:57;100795.66;;;3.21;100.00
24154;BME280;12312;53.362;-1.518;2023-01-27T04:24:23;100790.31;;;3.25;100.00
24154;BME280;12312;53.362;-1.518;2023-01-27T04:26:56;100792.13;;;3.23;100.00
24154;BME280;12312;53.362;-1.518;2023-01-27T04:29:26;100791.25;;;3.23;100.00
24154;BME280;12312;53.362;-1.518;2023-01-27T04:31:54;100796.44;;;3.26;100.00
24154;BME280;12312;53.362;-1.518;2023-01-27T04:34:25;100794.63;;;3.31;100.00
24154;BME280;12312;53.362;-1.518;2023-01-27T04:36:51;100795.50;;;3.28;100.00
24154;BME280;12312;53.362;-1.518;2023-01-27T04:39:17;100786.72;;;3.31;100.00
24154;BME280;12312;53.362;-1.518;2023-01-27T04:41:43;100787.72;;;3.24;100.00
24154;BME280;12312;53.362;-1.518;2023-01-27T04:44:10;100790.22;;;3.30;100.00
24154;BME280;12312;53.362;-1.518;2023-01-27T04:46:37;100785.03;;;3.27;100.00
24154;BME280;12312;53.362;-1.518;2023-01-27T04:49:03;100782.44;;;3.24;100.00
24154;BME280;12312;53.362;-1.518;2023-01-27T04:51:29;100778.88;;;3.28;100.00
24154;BME280;12312;53.362;-1.518;2023-01-27T04:53:55;100780.84;;;3.17;100.00
24154;BME280;12312;53.362;-1.518;2023-01-27T04:56:30;100785.75;;;3.35;100.00
24154;BME280;12312;53.362;-1.518;2023-01-27T04:59:00;100792.91;;;3.27;100.00
24154;BME280;12312;53.362;-1.518;2023-01-27T05:01:28;100786.03;;;3.20;100.00
24154;BME280;12312;53.362;-1.518;2023-01-27T05:03:54;100787.72;;;3.24;100.00
24154;BME280;12312;53.362;-1.518;2023-01-27T05:06:21;100782.53;;;3.19;100.00
24154;BME280;12312;53.362;-1.518;2023-01-27T05:08:47;100792.13;;;3.23;100.00
24154;BME280;12312;53.362;-1.518;2023-01-27T05:11:14;100780.72;;;3.23;100.00
24154;BME280;12312;53.362;-1.518;2023-01-27T05:13:40;100777.19;;;3.24;100.00
24154;BME280;12312;53.362;-1.518;2023-01-27T05:16:07;100785.97;;;3.23;100.00
24154;BME280;12312;53.362;-1.518;2023-01-27T05:18:33;100779.81;;;3.24;100.00
24154;BME280;12312;53.362;-1.518;2023-01-27T05:21:00;100785.06;;;3.25;100.00
24154;BME280;12312;53.362;-1.518;2023-01-27T05:23:26;100785.94;;;3.26;100.00
24154;BME280;12312;53.362;-1.518;2023-01-27T05:28:28;100793.00;;;3.22;100.00
24154;BME280;12312;53.362;-1.518;2023-01-27T05:31:00;100785.88;;;3.29;100.00
24154;BME280;12312;53.362;-1.518;2023-01-27T05:33:26;100784.09;;;3.31;100.00
24154;BME280;12312;53.362;-1.518;2023-01-27T05:35:51;100781.38;;;3.35;100.00
24154;BME280;12312;53.362;-1.518;2023-01-27T05:38:18;100789.13;;;3.43;100.00
24154;BME280;12312;53.362;-1.518;2023-01-27T05:40:44;100785.72;;;3.36;100.00
24154;BME280;12312;53.362;-1.518;2023-01-27T05:43:09;100787.44;;;3.39;100.00
24154;BME280;12312;53.362;-1.518;2023-01-27T05:45:35;100788.41;;;3.33;100.00
24154;BME280;12312;53.362;-1.518;2023-01-27T05:48:01;100789.25;;;3.37;100.00
24154;BME280;12312;53.362;-1.518;2023-01-27T05:50:26;100790.03;;;3.40;100.00
24154;BME280;12312;53.362;-1.518;2023-01-27T05:52:52;100794.44;;;3.40;100.00
24154;BME280;12312;53.362;-1.518;2023-01-27T05:55:18;100791.69;;;3.46;100.00
24154;BME280;12312;53.362;-1.518;2023-01-27T05:57:45;100796.16;;;3.41;100.00
24154;BME280;12312;53.362;-1.518;2023-01-27T06:00:12;100797.09;;;3.38;100.00
24154;BME280;12312;53.362;-1.518;2023-01-27T06:02:37;100798.81;;;3.39;100.00
24154;BME280;12312;53.362;-1.518;2023-01-27T06:05:03;100793.53;;;3.41;100.00
24154;BME280;12312;53.362;-1.518;2023-01-27T06:07:29;100802.13;;;3.50;100.00
24154;BME280;12312;53.362;-1.518;2023-01-27T06:09:54;100796.91;;;3.49;100.00
24154;BME280;12312;53.362;-1.518;2023-01-27T06:12:20;100809.22;;;3.47;100.00
24154;BME280;12312;53.362;-1.518;2023-01-27T06:14:45;100800.31;;;3.52;100.00
24154;BME280;12312;53.362;-1.518;2023-01-27T06:17:11;100799.38;;;3.58;100.00
24154;BME280;12312;53.362;-1.518;2023-01-27T06:19:36;100804.56;;;3.61;100.00
24154;BME280;12312;53.362;-1.518;2023-01-27T06:22:02;100799.72;;;3.84;100.00
24154;BME280;12312;53.362;-1.518;2023-01-27T06:24:27;100804.63;;;3.58;100.00
24154;BME280;12312;53.362;-1.518;2023-01-27T06:26:54;100807.28;;;3.56;100.00
24154;BME280;12312;53.362;-1.518;2023-01-27T06:29:20;100796.91;;;3.49;100.00
24154;BME280;12312;53.362;-1.518;2023-01-27T06:31:46;100797.56;;;3.58;100.00
24154;BME280;12312;53.362;-1.518;2023-01-27T06:34:11;100794.34;;;4.31;100.00
24154;BME280;12312;53.362;-1.518;2023-01-27T06:36:37;100792.66;;;4.27;100.00
24154;BME280;12312;53.362;-1.518;2023-01-27T06:39:02;100797.06;;;4.27;100.00
24154;BME280;12312;53.362;-1.518;2023-01-27T06:41:28;100797.91;;;4.65;100.00
24154;BME280;12312;53.362;-1.518;2023-01-27T06:43:54;100789.06;;;3.90;100.00
24154;BME280;12312;53.362;-1.518;2023-01-27T06:46:20;100797.28;;;3.75;100.00
24154;BME280;12312;53.362;-1.518;2023-01-27T06:48:46;100798.94;;;3.79;100.00
24154;BME280;12312;53.362;-1.518;2023-01-27T06:51:11;100809.72;;;3.67;100.00
24154;BME280;12312;53.362;-1.518;2023-01-27T06:53:37;100807.13;;;3.64;100.00
24154;BME280;12312;53.362;-1.518;2023-01-27T06:56:03;100813.25;;;3.66;100.00
24154;BME280;12312;53.362;-1.518;2023-01-27T06:58:28;100818.63;;;3.60;100.00
24154;BME280;12312;53.362;-1.518;2023-01-27T07:00:55;100813.41;;;3.57;100.00
24154;BME280;12312;53.362;-1.518;2023-01-27T07:03:21;100812.47;;;3.61;100.00
24154;BME280;12312;53.362;-1.518;2023-01-27T07:05:47;100809.47;;;3.79;100.00
24154;BME280;12312;53.362;-1.518;2023-01-27T07:08:12;100809.84;;;3.61;100.00
24154;BME280;12312;53.362;-1.518;2023-01-27T07:10:38;100806.19;;;3.68;100.00
24154;BME280;12312;53.362;-1.518;2023-01-27T07:13:08;100798.97;;;3.78;100.00
24154;BME280;12312;53.362;-1.518;2023-01-27T07:15:35;100802.47;;;3.78;100.00
24154;BME280;12312;53.362;-1.518;2023-01-27T07:18:02;100802.06;;;3.99;100.00
24154;BME280;12312;53.362;-1.518;2023-01-27T07:20:28;100811.00;;;3.89;100.00
24154;BME280;12312;53.362;-1.518;2023-01-27T07:23:02;100800.34;;;3.95;100.00
24154;BME280;12312;53.362;-1.518;2023-01-27T07:25:29;100801.66;;;4.17;100.00
24154;BME280;12312;53.362;-1.518;2023-01-27T07:27:59;100806.38;;;4.02;100.00
24154;BME280;12312;53.362;-1.518;2023-01-27T07:30:26;100805.09;;;3.80;100.00
24154;BME280;12312;53.362;-1.518;2023-01-27T07:32:52;100810.97;;;3.91;100.00
24154;BME280;12312;53.362;-1.518;2023-01-27T07:35:19;100813.50;;;3.97;100.00
24154;BME280;12312;53.362;-1.518;2023-01-27T07:37:47;100821.91;;;3.71;100.00
24154;BME280;12312;53.362;-1.518;2023-01-27T07:40:12;100809.53;;;3.76;100.00
24154;BME280;12312;53.362;-1.518;2023-01-27T07:42:39;100809.53;;;3.76;100.00
24154;BME280;12312;53.362;-1.518;2023-01-27T07:45:05;100812.47;;;3.61;100.00
24154;BME280;12312;53.362;-1.518;2023-01-27T07:47:31;100824.91;;;3.51;100.00
24154;BME280;12312;53.362;-1.518;2023-01-27T07:49:56;100825.44;;;3.70;100.00
24154;BME280;12312;53.362;-1.518;2023-01-27T07:52:22;100830.06;;;3.57;100.00
24154;BME280;12312;53.362;-1.518;2023-01-27T07:54:47;100824.81;;;3.57;100.00
24154;BME280;12312;53.362;-1.518;2023-01-27T07:57:13;100830.34;;;3.88;100.00
24154;BME280;12312;53.362;-1.518;2023-01-27T07:59:38;100836.09;;;3.64;100.00
24154;BME280;12312;53.362;-1.518;2023-01-27T08:02:05;100825.38;;;3.73;100.00
24154;BME280;12312;53.362;-1.518;2023-01-27T08:04:30;100833.91;;;3.87;100.00
24154;BME280;12312;53.362;-1.518;2023-01-27T08:06:56;100831.56;;;4.16;100.00
24154;BME280;12312;53.362;-1.518;2023-01-27T08:09:21;100834.38;;;4.06;100.00
24154;BME280;12312;53.362;-1.518;2023-01-27T08:11:47;100841.53;;;4.01;100.00
24154;BME280;12312;53.362;-1.518;2023-01-27T08:14:13;100842.38;;;4.01;100.00
24154;BME280;12312;53.362;-1.518;2023-01-27T08:16:38;100850.59;;;3.85;100.00
24154;BME280;12312;53.362;-1.518;2023-01-27T08:19:04;100847.13;;;3.84;100.00
24154;BME280;12312;53.362;-1.518;2023-01-27T08:21:30;100849.44;;;3.99;100.00
24154;BME280;12312;53.362;-1.518;2023-01-27T08:23:58;100856.75;;;3.85;100.00
24154;BME280;12312;53.362;-1.518;2023-01-27T08:26:25;100853.31;;;3.80;100.00
24154;BME280;12312;53.362;-1.518;2023-01-27T08:28:51;100859.25;;;3.91;100.00
24154;BME280;12312;53.362;-1.518;2023-01-27T08:31:17;100856.75;;;3.85;100.00
24154;BME280;12312;53.362;-1.518;2023-01-27T08:33:45;100864.69;;;3.82;100.00
24154;BME280;12312;53.362;-1.518;2023-01-27T08:36:16;100866.50;;;3.79;100.00
24154;BME280;12312;53.362;-1.518;2023-01-27T08:38:43;100862.97;;;3.81;100.00
24154;BME280;12312;53.362;-1.518;2023-01-27T08:41:11;100867.97;;;3.95;100.00
24154;BME280;12312;53.362;-1.518;2023-01-27T08:43:38;100876.16;;;3.81;100.00
24154;BME280;12312;53.362;-1.518;2023-01-27T08:46:04;100868.28;;;3.80;100.00
24154;BME280;12312;53.362;-1.518;2023-01-27T08:48:31;100874.97;;;3.96;100.00
24154;BME280;12312;53.362;-1.518;2023-01-27T08:50:58;100879.53;;;3.86;100.00
24154;BME280;12312;53.362;-1.518;2023-01-27T08:53:24;100878.41;;;3.99;100.00
24154;BME280;12312;53.362;-1.518;2023-01-27T08:55:52;100881.00;;;4.02;100.00
24154;BME280;12312;53.362;-1.518;2023-01-27T08:58:19;100882.06;;;3.92;100.00
24154;BME280;12312;53.362;-1.518;2023-01-27T09:00:47;100879.25;;;4.01;100.00
24154;BME280;12312;53.362;-1.518;2023-01-27T09:03:14;100883.75;;;3.96;100.00
24154;BME280;12312;53.362;-1.518;2023-01-27T09:05:41;100888.50;;;3.76;100.00
24154;BME280;12312;53.362;-1.518;2023-01-27T09:08:08;100891.88;;;3.84;100.00
24154;BME280;12312;53.362;-1.518;2023-01-27T09:10:38;100891.81;;;3.87;100.00
24154;BME280;12312;53.362;-1.518;2023-01-27T09:13:05;100880.47;;;3.84;100.00
24154;BME280;12312;53.362;-1.518;2023-01-27T09:15:36;100884.91;;;3.80;100.00
24154;BME280;12312;53.362;-1.518;2023-01-27T09:18:04;100892.84;;;3.79;100.00
24154;BME280;12312;53.362;-1.518;2023-01-27T09:20:30;100895.22;;;3.92;100.00
24154;BME280;12312;53.362;-1.518;2023-01-27T09:22:56;100894.50;;;3.86;100.00
24154;BME280;12312;53.362;-1.518;2023-01-27T09:25:22;100896.97;;;3.93;100.00
24154;BME280;12312;53.362;-1.518;2023-01-27T09:27:53;100897.06;;;3.89;100.00
24154;BME280;12312;53.362;-1.518;2023-01-27T09:30:18;100892.66;;;3.88;100.00
24154;BME280;12312;53.362;-1.518;2023-01-27T09:32:44;100897.25;;;3.78;100.00
24154;BME280;12312;53.362;-1.518;2023-01-27T09:35:10;100910.44;;;3.77;100.00
24154;BME280;12312;53.362;-1.518;2023-01-27T09:40:21;100893.50;;;3.91;100.00
24154;BME280;12312;53.362;-1.518;2023-01-27T09:48:52;100896.00;;;3.97;100.00
24154;BME280;12312;53.362;-1.518;2023-01-27T10:02:52;100882.16;;;4.30;100.00
24154;BME280;12312;53.362;-1.518;2023-01-27T10:11:34;100894.47;;;4.31;100.00
24154;BME280;12312;53.362;-1.518;2023-01-27T10:16:54;100900.13;;;4.12;100.00
24154;BME280;12312;53.362;-1.518;2023-01-27T10:25:14;100889.03;;;3.96;100.00
24154;BME280;12312;53.362;-1.518;2023-01-27T10:27:41;100900.09;;;4.13;100.00
24154;BME280;12312;53.362;-1.518;2023-01-27T10:32:49;100898.94;;;4.67;100.00
24154;BME280;12312;53.362;-1.518;2023-01-27T10:35:22;100893.22;;;4.47;100.00
24154;BME280;12312;53.362;-1.518;2023-01-27T10:38:07;100896.84;;;4.43;100.00
24154;BME280;12312;53.362;-1.518;2023-01-27T10:41:05;100897.78;;;4.39;100.00
24154;BME280;12312;53.362;-1.518;2023-01-27T10:49:24;100887.56;;;4.24;100.00
24154;BME280;12312;53.362;-1.518;2023-01-27T10:52:09;100888.25;;;4.34;100.00
24154;BME280;12312;53.362;-1.518;2023-01-27T11:05:45;100883.03;;;4.31;100.00
24154;BME280;12312;53.362;-1.518;2023-01-27T11:08:22;100883.78;;;4.37;100.00
24154;BME280;12312;53.362;-1.518;2023-01-27T11:10:53;100886.28;;;4.45;100.00
24154;BME280;12312;53.362;-1.518;2023-01-27T11:13:38;100882.03;;;4.76;100.00
24154;BME280;12312;53.362;-1.518;2023-01-27T11:16:12;100883.84;;;5.12;100.00
24154;BME280;12312;53.362;-1.518;2023-01-27T11:18:41;100881.31;;;5.42;100.00
24154;BME280;12312;53.362;-1.518;2023-01-27T11:21:16;100881.69;;;5.27;99.86
24154;BME280;12312;53.362;-1.518;2023-01-27T11:23:48;100882.44;;;5.34;99.18
24154;BME280;12312;53.362;-1.518;2023-01-27T11:29:15;100874.00;;;5.18;97.57
24154;BME280;12312;53.362;-1.518;2023-01-27T11:35:11;100859.97;;;4.81;98.76
24154;BME280;12312;53.362;-1.518;2023-01-27T11:40:02;100863.63;;;5.11;100.00
24154;BME280;12312;53.362;-1.518;2023-01-27T11:42:32;100847.88;;;5.08;99.15
24154;BME280;12312;53.362;-1.518;2023-01-27T11:45:00;100844.47;;;5.03;100.00
24154;BME280;12312;53.362;-1.518;2023-01-27T11:47:33;100839.84;;;5.12;98.95
24154;BME280;12312;53.362;-1.518;2023-01-27T11:50:03;100837.09;;;5.17;97.88
24154;BME280;12312;53.362;-1.518;2023-01-27T11:52:30;100834.34;;;5.21;96.34
24154;BME280;12312;53.362;-1.518;2023-01-27T11:57:48;100828.44;;;5.12;96.11
24154;BME280;12312;53.362;-1.518;2023-01-27T12:00:25;100824.63;;;4.88;98.54
24154;BME280;12312;53.362;-1.518;2023-01-27T12:03:04;100826.13;;;4.98;100.00
24154;BME280;12312;53.362;-1.518;2023-01-27T12:05:33;100813.75;;;4.65;99.48
24154;BME280;12312;53.362;-1.518;2023-01-27T12:08:03;100826.22;;;4.57;98.59
24154;BME280;12312;53.362;-1.518;2023-01-27T12:13:18;100814.28;;;5.49;100.00
24154;BME280;12312;53.362;-1.518;2023-01-27T12:15:59;100806.56;;;5.42;99.73
24154;BME280;12312;53.362;-1.518;2023-01-27T12:18:25;100802.00;;;5.15;98.06
24154;BME280;12312;53.362;-1.518;2023-01-27T12:21:07;100802.06;;;5.10;95.31
24154;BME280;12312;53.362;-1.518;2023-01-27T12:23:38;100803.78;;;5.13;96.57
24154;BME280;12312;53.362;-1.518;2023-01-27T12:26:10;100796.16;;;5.02;96.20
24154;BME280;12312;53.362;-1.518;2023-01-27T12:28:49;100807.84;;;4.91;96.55
24154;BME280;12312;53.362;-1.518;2023-01-27T12:31:22;100807.38;;;4.75;96.04
24154;BME280;12312;53.362;-1.518;2023-01-27T12:34:02;100799.31;;;4.81;98.97
24154;BME280;12312;53.362;-1.518;2023-01-27T12:36:36;100801.41;;;4.67;96.63
24154;BME280;12312;53.362;-1.518;2023-01-27T12:39:03;100795.91;;;4.76;98.74
24154;BME280;12312;53.362;-1.518;2023-01-27T12:41:35;100792.44;;;4.74;96.47
24154;BME280;12312;53.362;-1.518;2023-01-27T12:44:17;100782.88;;;4.70;96.43
24154;BME280;12312;53.362;-1.518;2023-01-27T12:46:59;100785.97;;;4.51;98.80
24154;BME280;12312;53.362;-1.518;2023-01-27T12:49:34;100783.22;;;4.55;98.41
24154;BME280;12312;53.362;-1.518;2023-01-27T12:52:04;100784.88;;;4.59;98.69
24154;BME280;12312;53.362;-1.518;2023-01-27T12:54:34;100779.69;;;4.56;100.00
24154;BME280;12312;53.362;-1.518;2023-01-27T12:57:03;100783.84;;;4.66;100.00
24154;BME280;12312;53.362;-1.518;2023-01-27T12:59:31;100780.69;;;4.87;100.00
24154;BME280;12312;53.362;-1.518;2023-01-27T13:02:19;100775.28;;;4.93;100.00
24154;BME280;12312;53.362;-1.518;2023-01-27T13:04:52;100789.72;;;5.12;100.00
24154;BME280;12312;53.362;-1.518;2023-01-27T13:07:26;100790.94;;;4.99;99.10
24154;BME280;12312;53.362;-1.518;2023-01-27T13:09:58;100781.47;;;4.91;99.64
24154;BME280;12312;53.362;-1.518;2023-01-27T13:12:28;100780.56;;;4.93;96.91
24154;BME280;12312;53.362;-1.518;2023-01-27T13:15:04;100780.47;;;4.96;98.80
24154;BME280;12312;53.362;-1.518;2023-01-27T13:17:48;100783.06;;;4.98;97.39
24154;BME280;12312;53.362;-1.518;2023-01-27T13:23:21;100768.31;;;5.89;100.00
24154;BME280;12312;53.362;-1.518;2023-01-27T13:25:56;100757.16;;;5.45;98.80
24154;BME280;12312;53.362;-1.518;2023-01-27T13:28:32;100758.34;;;5.35;97.73
24154;BME280;12312;53.362;-1.518;2023-01-27T13:31:07;100761.47;;;5.49;97.08
24154;BME280;12312;53.362;-1.518;2023-01-27T13:33:41;100752.28;;;5.63;96.31
24154;BME280;12312;53.362;-1.518;2023-01-27T13:36:36;100743.97;;;5.45;94.37
24154;BME280;12312;53.362;-1.518;2023-01-27T13:42:08;100748.09;;;5.23;96.79
24154;BME280;12312;53.362;-1.518;2023-01-27T13:44:42;100741.28;;;5.78;100.00
24154;BME280;12312;53.362;-1.518;2023-01-27T13:47:22;100741.88;;;5.89;99.43
24154;BME280;12312;53.362;-1.518;2023-01-27T13:49:54;100734.88;;;5.25;96.28
24154;BME280;12312;53.362;-1.518;2023-01-27T13:52:22;100736.28;;;5.04;96.17
24154;BME280;12312;53.362;-1.518;2023-01-27T13:54:48;100729.13;;;5.09;96.19
24154;BME280;12312;53.362;-1.518;2023-01-27T13:57:40;100733.63;;;5.04;97.51
24154;BME280;12312;53.362;-1.518;2023-01-27T14:00:30;100741.63;;;5.01;97.44
24154;BME280;12312;53.362;-1.518;2023-01-27T14:10:44;100739.75;;;5.06;91.48
24154;BME280;12312;53.362;-1.518;2023-01-27T14:30:42;100731.31;;;4.92;94.02
24154;BME280;12312;53.362;-1.518;2023-01-27T14:36:19;100739.28;;;4.91;93.27
24154;BME280;12312;53.362;-1.518;2023-01-27T14:41:35;100736.34;;;5.01;93.22
24154;BME280;12312;53.362;-1.518;2023-01-27T14:44:11;100738.34;;;4.93;94.71
24154;BME280;12312;53.362;-1.518;2023-01-27T14:46:53;100739.00;;;5.01;95.58
24154;BME280;12312;53.362;-1.518;2023-01-27T14:55:33;100741.34;;;5.13;96.32